Time;durP1;ratioP1;P1;durP2;ratioP2;P2;SDS_P1;SDS_P2;PMS_P1;PMS_P2;Temp;Humidity;BMP_temperature;BMP_pressure;BME280_temperature;BME280_humidity;BME280_pressure;Samples;Min_cycle;Max_cycle;Signal;HPM_P1;HPM_P2
2023/10/07 00:00:56;;;;;;;7.67;3.17;;;13.90;1.00;;;;;;5052759;28;20674;-78
2023/10/07 00:03:23;;;;;;;7.90;3.13;;;13.90;1.00;;;;;;5052561;28;20288;-77
2023/10/07 00:05:50;;;;;;;9.00;3.23;;;13.90;1.00;;;;;;5054437;28;20190;-77
2023/10/07 00:08:16;;;;;;;9.17;3.20;;;13.90;1.00;;;;;;5053945;28;20168;-78
2023/10/07 00:10:46;;;;;;;7.70;3.30;;;14.00;1.00;;;;;;5053771;28;20605;-78
2023/10/07 00:13:12;;;;;;;6.47;3.37;;;13.90;1.00;;;;;;5053696;28;20188;-78
2023/10/07 00:15:39;;;;;;;7.43;3.57;;;13.90;1.00;;;;;;5052332;28;20683;-78
2023/10/07 00:18:14;;;;;;;11.00;3.30;;;13.90;1.00;;;;;;5052089;28;20184;-78
2023/10/07 00:20:56;;;;;;;8.03;3.00;;;14.00;1.00;;;;;;5053807;28;20159;-77
2023/10/07 00:23:26;;;;;;;11.07;3.23;;;14.00;1.00;;;;;;5052354;28;20200;-77
2023/10/07 00:25:54;;;;;;;12.37;3.27;;;14.00;1.00;;;;;;5053821;28;20717;-77
2023/10/07 00:31:01;;;;;;;11.87;3.73;;;14.20;1.00;;;;;;5053583;28;20214;-78
2023/10/07 00:33:27;;;;;;;7.60;3.60;;;14.00;1.00;;;;;;5052081;28;20194;-78
2023/10/07 00:35:53;;;;;;;7.77;3.33;;;13.90;1.00;;;;;;5053454;28;20171;-77
2023/10/07 00:38:23;;;;;;;8.97;3.50;;;13.90;1.00;;;;;;5053593;28;20164;-78
2023/10/07 00:40:53;;;;;;;6.47;3.10;;;13.90;1.00;;;;;;5053579;28;20163;-76
2023/10/07 00:43:26;;;;;;;4.83;3.07;;;13.90;1.00;;;;;;5053325;28;20532;-78
2023/10/07 00:46:10;;;;;;;6.93;3.10;;;13.90;17.90;;;;;;5052111;28;20179;-78
2023/10/07 00:48:52;;;;;;;11.73;3.30;;;13.80;46.40;;;;;;5052379;28;20661;-78
2023/10/07 00:51:33;;;;;;;9.57;3.00;;;13.80;87.00;;;;;;5053388;28;20156;-78
2023/10/07 00:56:51;;;;;;;9.17;3.23;;;13.80;96.40;;;;;;5053593;28;20236;-78
2023/10/07 00:59:19;;;;;;;5.87;3.43;;;13.80;99.90;;;;;;5053085;28;20152;-77
2023/10/07 01:01:47;;;;;;;8.60;3.03;;;13.70;99.90;;;;;;5053075;28;20202;-78
2023/10/07 01:04:16;;;;;;;8.37;3.47;;;13.70;99.90;;;;;;5053239;28;20683;-78
2023/10/07 01:06:45;;;;;;;14.23;3.73;;;13.70;99.90;;;;;;5051351;28;20587;-78
2023/10/07 01:09:14;;;;;;;8.47;3.63;;;13.70;99.90;;;;;;5053038;28;20197;-78
2023/10/07 01:11:40;;;;;;;9.23;4.00;;;13.70;99.90;;;;;;5051610;28;20183;-78
2023/10/07 01:14:11;;;;;;;9.47;3.70;;;13.70;99.90;;;;;;5052870;28;20538;-78
2023/10/07 01:16:41;;;;;;;9.33;3.80;;;13.60;99.90;;;;;;5053124;28;20168;-78
2023/10/07 01:21:58;;;;;;;10.57;3.77;;;13.60;99.90;;;;;;5053182;28;20148;-78
2023/10/07 01:35:47;;;;;;;15.13;4.33;;;13.70;99.90;;;;;;5048236;28;20216;-77
2023/10/07 01:38:18;;;;;;;10.27;3.80;;;13.70;99.90;;;;;;5056844;28;20658;-76
2023/10/07 01:40:55;;;;;;;14.40;4.17;;;13.70;99.90;;;;;;5055736;28;20198;-77
2023/10/07 01:43:21;;;;;;;12.43;4.50;;;14.10;99.90;;;;;;5055505;28;20203;-77
2023/10/07 01:45:49;;;;;;;11.33;3.90;;;13.70;99.90;;;;;;5054788;28;20598;-76
2023/10/07 01:48:17;;;;;;;10.27;4.20;;;13.70;99.90;;;;;;5056320;28;20263;-77
2023/10/07 01:50:44;;;;;;;6.73;3.53;;;13.70;99.90;;;;;;5057224;28;20254;-78
2023/10/07 01:53:11;;;;;;;9.10;4.30;;;13.70;99.90;;;;;;5056752;28;20195;-77
2023/10/07 01:55:44;;;;;;;8.97;3.90;;;13.70;99.90;;;;;;5056444;28;20290;-77
2023/10/07 01:58:14;;;;;;;12.20;4.03;;;13.70;99.90;;;;;;5056368;28;20518;-77
2023/10/07 02:00:45;;;;;;;13.50;4.50;;;13.70;99.90;;;;;;5056873;28;20639;-78
2023/10/07 02:03:23;;;;;;;11.50;4.47;;;13.70;99.90;;;;;;5056858;28;20223;-77
2023/10/07 02:05:49;;;;;;;11.47;4.77;;;13.70;99.90;;;;;;5056448;28;20471;-78
2023/10/07 02:08:20;;;;;;;11.03;4.67;;;13.80;99.90;;;;;;5056439;28;20232;-77
2023/10/07 02:10:47;;;;;;;10.17;4.57;;;13.80;99.90;;;;;;5056096;28;20152;-78
2023/10/07 02:13:18;;;;;;;8.23;4.03;;;13.70;99.90;;;;;;5056020;28;20237;-78
2023/10/07 02:15:43;;;;;;;11.97;4.80;;;13.70;99.90;;;;;;5055031;28;20201;-77
2023/10/07 02:18:15;;;;;;;11.30;4.93;;;13.70;99.90;;;;;;5054775;28;20266;-78
2023/10/07 02:20:49;;;;;;;11.73;4.87;;;13.70;99.90;;;;;;5056232;28;20243;-78
2023/10/07 02:23:34;;;;;;;9.93;4.53;;;13.70;99.90;;;;;;5056012;28;20191;-78
2023/10/07 02:25:59;;;;;;;15.17;5.47;;;13.70;99.90;;;;;;5055394;28;20170;-78
2023/10/07 02:28:29;;;;;;;9.73;4.63;;;13.70;99.90;;;;;;5055913;28;20164;-78
2023/10/07 02:31:01;;;;;;;11.27;4.50;;;13.70;99.90;;;;;;5054743;28;20666;-77
2023/10/07 02:33:28;;;;;;;10.97;4.80;;;13.80;99.90;;;;;;5054319;28;20203;-78
2023/10/07 02:35:56;;;;;;;10.00;4.97;;;13.70;99.90;;;;;;5054264;28;20167;-77
2023/10/07 02:38:36;;;;;;;14.37;4.90;;;13.80;99.90;;;;;;5054379;28;20171;-78
2023/10/07 02:41:07;;;;;;;17.87;5.90;;;13.70;99.90;;;;;;5055913;28;20171;-78
2023/10/07 02:43:34;;;;;;;13.20;5.20;;;13.80;99.90;;;;;;5055254;28;20180;-77
2023/10/07 02:46:02;;;;;;;11.67;5.20;;;13.80;99.90;;;;;;5055735;28;20708;-77
2023/10/07 02:48:34;;;;;;;13.43;5.43;;;13.80;99.90;;;;;;5054450;28;20488;-78
2023/10/07 02:51:06;;;;;;;12.40;5.23;;;13.80;99.90;;;;;;5054183;28;20213;-77
2023/10/07 02:53:35;;;;;;;12.63;4.57;;;13.80;99.90;;;;;;5055460;28;20192;-78
2023/10/07 02:56:04;;;;;;;18.40;5.47;;;13.80;99.90;;;;;;5055744;28;20164;-77
2023/10/07 02:58:36;;;;;;;13.00;5.33;;;13.80;99.90;;;;;;5055022;28;20176;-78
2023/10/07 03:01:13;;;;;;;11.40;5.13;;;13.80;99.90;;;;;;5055551;28;20438;-77
2023/10/07 03:03:40;;;;;;;11.53;5.93;;;13.80;99.90;;;;;;5053790;28;20726;-78
2023/10/07 03:06:07;;;;;;;11.67;6.07;;;13.80;99.90;;;;;;5053847;28;20225;-78
2023/10/07 03:09:00;;;;;;;13.17;6.00;;;13.80;99.90;;;;;;5053631;28;20183;-77
2023/10/07 03:11:23;;;;;;;14.83;5.83;;;13.80;99.90;;;;;;5055143;28;20677;-78
2023/10/07 03:13:50;;;;;;;12.60;5.47;;;13.80;99.90;;;;;;5055239;28;20199;-78
2023/10/07 03:18:48;;;;;;;17.30;6.10;;;13.80;99.90;;;;;;5054925;28;20548;-78
2023/10/07 03:21:15;;;;;;;12.07;6.07;;;13.70;99.90;;;;;;5053530;28;20309;-77
2023/10/07 03:23:47;;;;;;;15.53;7.00;;;13.90;99.90;;;;;;5054877;28;20194;-78
2023/10/07 03:26:18;;;;;;;12.93;6.70;;;13.90;99.90;;;;;;5053648;28;20163;-78
2023/10/07 03:28:56;;;;;;;16.50;6.40;;;13.90;99.90;;;;;;5055045;28;20183;-78
2023/10/07 03:34:20;;;;;;;14.27;6.00;;;13.90;99.90;;;;;;5053397;28;20306;-77
2023/10/07 03:36:48;;;;;;;12.30;6.53;;;14.00;99.90;;;;;;5054903;28;20199;-78
2023/10/07 03:41:51;;;;;;;14.20;7.20;;;14.00;99.90;;;;;;5054566;28;20203;-77
2023/10/07 03:44:18;;;;;;;13.53;7.07;;;14.00;99.90;;;;;;5054363;28;20163;-76
2023/10/07 03:46:47;;;;;;;12.87;6.60;;;14.00;99.90;;;;;;5054320;28;20203;-77
2023/10/07 03:49:15;;;;;;;16.00;7.10;;;14.00;99.90;;;;;;5053134;28;20183;-77
2023/10/07 03:51:48;;;;;;;14.07;6.80;;;14.00;99.90;;;;;;5052736;28;20189;-78
2023/10/07 03:54:24;;;;;;;15.87;6.70;;;14.00;99.90;;;;;;5053833;28;20183;-78
2023/10/07 03:56:49;;;;;;;14.60;7.10;;;14.00;99.90;;;;;;5052849;28;20167;-78
2023/10/07 03:59:15;;;;;;;12.70;7.27;;;14.00;99.90;;;;;;5052823;28;20172;-78
2023/10/07 04:01:44;;;;;;;16.60;7.53;;;14.10;99.90;;;;;;5054263;28;20624;-77
2023/10/07 04:04:11;;;;;;;9.57;6.77;;;14.10;99.90;;;;;;5054265;28;20643;-78
2023/10/07 04:06:38;;;;;;;15.23;7.30;;;14.10;99.90;;;;;;5054286;28;20220;-78
2023/10/07 04:09:07;;;;;;;21.50;6.73;;;14.10;99.90;;;;;;5054166;28;20262;-77
2023/10/07 04:11:37;;;;;;;11.47;6.73;;;14.10;99.90;;;;;;5053953;28;20547;-78
2023/10/07 04:16:50;;;;;;;10.97;6.90;;;14.10;99.90;;;;;;5054326;28;20182;-78
2023/10/07 04:21:45;;;;;;;10.87;7.27;;;14.10;99.90;;;;;;5054216;28;20187;-78
2023/10/07 04:24:12;;;;;;;13.57;6.60;;;14.10;99.90;;;;;;5054152;28;20183;-77
2023/10/07 04:26:39;;;;;;;12.23;6.53;;;14.20;99.90;;;;;;5052644;28;20175;-78
2023/10/07 04:29:17;;;;;;;12.40;6.97;;;14.20;99.90;;;;;;5052343;28;20175;-77
2023/10/07 04:31:47;;;;;;;15.77;7.50;;;14.20;99.90;;;;;;5052510;28;20206;-77
2023/10/07 04:34:15;;;;;;;14.70;7.43;;;14.20;99.90;;;;;;5053733;28;20274;-78
2023/10/07 04:39:31;;;;;;;15.60;6.70;;;14.20;99.90;;;;;;5053824;28;20342;-77
2023/10/07 04:41:58;;;;;;;14.20;6.73;;;14.20;99.90;;;;;;5054274;28;20581;-78
2023/10/07 04:50:05;;;;;;;15.10;7.30;;;14.20;99.90;;;;;;5053965;28;20163;-78
2023/10/07 04:52:32;;;;;;;10.60;6.67;;;14.30;99.90;;;;;;5056628;28;20187;-76
2023/10/07 04:54:58;;;;;;;14.57;6.97;;;14.20;99.90;;;;;;5056067;28;20199;-78
2023/10/07 04:57:44;;;;;;;12.67;7.07;;;14.20;99.90;;;;;;5055647;28;20530;-77
2023/10/07 05:00:27;;;;;;;11.40;6.23;;;14.20;99.90;;;;;;5052392;28;20578;-77
2023/10/07 05:02:59;;;;;;;15.47;7.07;;;14.20;99.90;;;;;;5053260;28;20195;-78
2023/10/07 05:05:33;;;;;;;11.63;7.03;;;14.30;99.90;;;;;;5052539;28;20166;-77
2023/10/07 05:08:17;;;;;;;12.37;7.33;;;14.30;99.90;;;;;;5053349;28;20170;-78
2023/10/07 05:10:43;;;;;;;18.87;7.80;;;14.30;99.90;;;;;;5053076;28;20242;-78
2023/10/07 05:13:09;;;;;;;15.33;7.07;;;14.30;99.90;;;;;;5051680;28;20645;-78
2023/10/07 05:15:41;;;;;;;16.37;7.10;;;14.30;99.90;;;;;;5053079;28;20199;-78
2023/10/07 05:18:13;;;;;;;16.47;7.00;;;14.30;99.90;;;;;;5053288;28;20152;-75
2023/10/07 05:20:46;;;;;;;14.07;6.60;;;14.30;99.90;;;;;;5051860;28;20178;-78
2023/10/07 05:23:17;;;;;;;13.50;6.63;;;14.30;99.90;;;;;;5051433;28;20196;-77
2023/10/07 05:25:49;;;;;;;13.23;6.83;;;14.40;99.90;;;;;;5053099;28;20160;-78
2023/10/07 05:28:22;;;;;;;10.50;6.40;;;14.30;99.90;;;;;;5052718;28;20160;-77
2023/10/07 05:30:52;;;;;;;12.87;6.33;;;14.40;99.90;;;;;;5052781;28;20215;-77
2023/10/07 05:33:25;;;;;;;17.73;6.60;;;14.40;99.90;;;;;;5052350;28;20195;-76
2023/10/07 05:35:58;;;;;;;12.00;6.40;;;14.40;99.90;;;;;;5050661;28;20207;-76
2023/10/07 05:38:25;;;;;;;12.23;6.53;;;14.40;99.90;;;;;;5050682;28;20175;-77
2023/10/07 05:40:54;;;;;;;17.17;7.40;;;14.40;99.90;;;;;;5052257;28;20187;-76
2023/10/07 05:43:21;;;;;;;12.73;7.07;;;14.40;99.90;;;;;;5050865;28;20207;-77
2023/10/07 05:45:46;;;;;;;13.43;6.70;;;14.40;99.90;;;;;;5050684;28;20305;-77
2023/10/07 05:48:12;;;;;;;9.93;6.60;;;14.40;99.90;;;;;;5051992;28;20629;-76
2023/10/07 05:50:38;;;;;;;9.90;6.07;;;14.40;99.90;;;;;;5051965;28;20591;-76
2023/10/07 05:53:05;;;;;;;10.57;5.97;;;14.40;99.90;;;;;;5051803;28;20274;-76
2023/10/07 05:55:33;;;;;;;13.40;5.93;;;14.40;99.90;;;;;;5052046;28;20195;-77
2023/10/07 05:58:02;;;;;;;11.93;6.67;;;14.40;99.90;;;;;;5051895;28;20164;-76
2023/10/07 06:00:31;;;;;;;10.30;6.30;;;14.40;99.90;;;;;;5051990;28;20176;-76
2023/10/07 06:03:05;;;;;;;18.23;6.10;;;14.40;99.90;;;;;;5051714;28;20274;-76
2023/10/07 06:05:31;;;;;;;12.67;5.90;;;14.40;99.90;;;;;;5050504;28;20164;-76
2023/10/07 06:07:59;;;;;;;13.40;6.40;;;14.40;99.90;;;;;;5051772;28;20251;-75
2023/10/07 06:10:26;;;;;;;10.80;6.13;;;14.40;99.90;;;;;;5050504;28;20266;-77
2023/10/07 06:12:55;;;;;;;15.00;6.30;;;14.40;99.90;;;;;;5050369;28;20252;-76
2023/10/07 06:15:24;;;;;;;10.60;6.13;;;14.40;99.90;;;;;;5051950;28;20689;-76
2023/10/07 06:17:51;;;;;;;11.37;6.07;;;14.50;99.90;;;;;;5055380;28;20164;-76
2023/10/07 06:20:18;;;;;;;12.00;6.13;;;14.50;99.90;;;;;;5055285;28;20159;-77
2023/10/07 06:22:48;;;;;;;10.60;6.07;;;14.50;99.90;;;;;;5053852;28;20187;-74
2023/10/07 06:25:15;;;;;;;14.50;6.40;;;14.50;99.90;;;;;;5055230;28;20176;-76
2023/10/07 06:27:43;;;;;;;9.67;5.93;;;14.50;99.90;;;;;;5055277;28;20250;-76
2023/10/07 06:30:19;;;;;;;13.20;6.37;;;14.50;99.90;;;;;;5053683;28;20235;-77
2023/10/07 06:32:45;;;;;;;11.47;6.20;;;14.50;99.90;;;;;;5055210;28;20248;-76
2023/10/07 06:35:13;;;;;;;15.60;6.87;;;14.50;99.90;;;;;;5055014;28;20369;-76
2023/10/07 06:37:40;;;;;;;14.20;5.97;;;14.60;99.90;;;;;;5055028;28;20212;-76
2023/10/07 06:40:13;;;;;;;13.27;5.83;;;14.60;99.90;;;;;;5053633;28;20175;-76
2023/10/07 06:42:40;;;;;;;9.77;5.20;;;14.60;99.90;;;;;;5054859;28;20187;-76
2023/10/07 06:45:08;;;;;;;13.87;6.33;;;14.60;99.90;;;;;;5053549;28;20175;-76
2023/10/07 06:47:34;;;;;;;10.57;5.57;;;14.60;99.90;;;;;;5053388;28;20658;-76
2023/10/07 06:50:02;;;;;;;9.13;5.47;;;14.60;99.90;;;;;;5053466;28;20186;-76
2023/10/07 06:52:28;;;;;;;11.10;5.67;;;14.70;99.90;;;;;;5054817;28;20634;-77
2023/10/07 06:54:54;;;;;;;12.67;5.73;;;14.70;99.90;;;;;;5054577;28;20196;-76
2023/10/07 06:57:20;;;;;;;12.87;5.90;;;14.70;99.90;;;;;;5054670;28;20535;-76
2023/10/07 06:59:45;;;;;;;10.80;5.30;;;14.70;99.90;;;;;;5053318;28;20206;-76
2023/10/07 07:02:18;;;;;;;11.20;5.57;;;14.80;99.90;;;;;;5054541;28;20647;-77
2023/10/07 07:04:43;;;;;;;10.73;5.57;;;14.80;99.90;;;;;;5054607;28;20284;-77
2023/10/07 07:07:16;;;;;;;12.87;6.10;;;14.90;99.90;;;;;;5054463;28;20183;-76
2023/10/07 07:09:42;;;;;;;10.87;5.47;;;14.90;99.90;;;;;;5054760;28;20178;-77
2023/10/07 07:12:09;;;;;;;15.97;5.70;;;15.00;99.90;;;;;;5054548;28;20237;-77
2023/10/07 07:17:43;;;;;;;13.90;5.23;;;15.00;99.90;;;;;;5053042;28;20190;-77
2023/10/07 07:22:38;;;;;;;13.20;5.53;;;15.10;99.90;;;;;;5054446;28;20245;-76
2023/10/07 07:25:08;;;;;;;11.03;5.33;;;15.10;99.90;;;;;;5052795;28;20180;-76
2023/10/07 07:27:34;;;;;;;8.53;5.53;;;15.10;99.90;;;;;;5051937;28;20651;-77
2023/10/07 07:30:17;;;;;;;10.43;4.93;;;15.20;99.90;;;;;;5054003;28;20663;-76
2023/10/07 07:32:44;;;;;;;10.20;5.03;;;15.20;99.90;;;;;;5054147;28;20655;-76
2023/10/07 07:35:10;;;;;;;10.07;5.27;;;15.20;99.90;;;;;;5053823;28;20183;-76
2023/10/07 07:37:36;;;;;;;11.30;5.00;;;15.30;99.90;;;;;;5053868;28;20639;-77
2023/10/07 07:40:28;;;;;;;8.83;4.53;;;15.30;99.90;;;;;;5053917;28;20167;-76
2023/10/07 07:42:56;;;;;;;12.53;5.03;;;15.40;99.90;;;;;;5053705;28;20222;-76
2023/10/07 07:45:26;;;;;;;10.03;4.57;;;15.40;99.90;;;;;;5053676;28;20178;-76
2023/10/07 07:47:55;;;;;;;14.43;4.73;;;15.40;99.90;;;;;;5053690;28;20480;-76
2023/10/07 07:50:21;;;;;;;10.97;5.37;;;15.40;99.90;;;;;;5052287;28;20225;-76
2023/10/07 07:52:50;;;;;;;9.40;4.50;;;15.50;99.90;;;;;;5053447;28;20195;-77
2023/10/07 07:55:16;;;;;;;10.07;5.30;;;15.50;99.90;;;;;;5052063;28;20754;-76
2023/10/07 07:57:44;;;;;;;17.93;5.20;;;15.50;99.90;;;;;;5053639;28;20171;-76
2023/10/07 08:00:25;;;;;;;11.27;4.90;;;15.60;99.90;;;;;;5052090;28;20711;-76
2023/10/07 08:02:55;;;;;;;12.43;5.17;;;15.60;99.90;;;;;;5053347;28;20191;-76
2023/10/07 08:05:21;;;;;;;10.77;4.97;;;15.70;99.90;;;;;;5053284;28;20174;-77
2023/10/07 08:07:51;;;;;;;12.07;4.87;;;15.70;99.90;;;;;;5053214;28;20548;-76
2023/10/07 08:10:20;;;;;;;7.03;4.70;;;15.70;99.90;;;;;;5053715;28;20152;-75
2023/10/07 08:12:47;;;;;;;9.27;4.50;;;15.70;99.90;;;;;;5053228;28;20188;-77
2023/10/07 08:17:39;;;;;;;14.87;4.93;;;15.70;99.90;;;;;;5053379;28;20263;-76
2023/10/07 08:20:12;;;;;;;13.27;4.67;;;15.80;99.90;;;;;;5051933;28;20630;-77
2023/10/07 08:22:45;;;;;;;8.70;4.73;;;15.80;99.90;;;;;;5052909;28;20539;-76
2023/10/07 08:25:17;;;;;;;9.67;5.00;;;15.80;99.90;;;;;;5053254;28;20167;-76
2023/10/07 08:27:49;;;;;;;13.57;5.07;;;15.80;99.90;;;;;;5051620;28;20225;-76
2023/10/07 08:30:29;;;;;;;15.60;4.83;;;15.80;99.90;;;;;;5052888;28;20211;-77
2023/10/07 08:32:55;;;;;;;12.00;4.73;;;15.80;99.90;;;;;;5051437;28;20195;-76
2023/10/07 08:35:25;;;;;;;12.30;5.00;;;15.90;99.90;;;;;;5052975;28;20195;-76
2023/10/07 08:37:51;;;;;;;8.47;4.23;;;15.90;99.90;;;;;;5053008;28;20148;-76
2023/10/07 08:40:28;;;;;;;7.87;4.67;;;15.90;99.90;;;;;;5052429;28;20528;-77
2023/10/07 08:42:57;;;;;;;11.00;4.53;;;15.90;99.90;;;;;;5052690;28;20183;-77
2023/10/07 08:45:25;;;;;;;11.67;4.07;;;15.90;99.90;;;;;;5053082;28;20183;-77
2023/10/07 08:47:52;;;;;;;7.57;4.47;;;16.00;99.90;;;;;;5052870;28;20195;-76
2023/10/07 08:50:22;;;;;;;9.47;4.60;;;16.10;99.90;;;;;;5052565;28;20681;-76
2023/10/07 08:53:02;;;;;;;10.93;4.60;;;16.00;99.90;;;;;;5052534;28;20698;-76
2023/10/07 08:55:30;;;;;;;10.40;5.00;;;16.10;99.90;;;;;;5051127;28;20187;-77
2023/10/07 08:57:56;;;;;;;11.57;5.07;;;16.10;99.90;;;;;;5052635;28;20511;-78
2023/10/07 09:00:29;;;;;;;11.13;4.83;;;16.20;99.90;;;;;;5052349;28;20176;-76
2023/10/07 09:02:55;;;;;;;7.90;4.67;;;16.20;99.90;;;;;;5052271;28;20290;-77
2023/10/07 09:05:24;;;;;;;8.47;4.20;;;16.30;99.90;;;;;;5052631;28;20546;-77
2023/10/07 09:07:50;;;;;;;10.30;4.40;;;16.40;99.90;;;;;;5052299;28;20259;-77
2023/10/07 09:10:16;;;;;;;10.80;4.90;;;16.50;99.90;;;;;;5052246;28;20543;-77
2023/10/07 09:12:48;;;;;;;12.13;4.80;;;16.50;99.90;;;;;;5052166;28;20697;-77
2023/10/07 09:15:25;;;;;;;13.33;5.07;;;16.50;99.90;;;;;;5050871;28;20269;-77
2023/10/07 09:18:17;;;;;;;10.60;5.17;;;16.50;99.90;;;;;;5052290;28;20160;-77
2023/10/07 09:20:50;;;;;;;11.90;4.97;;;16.80;99.90;;;;;;5052204;28;20156;-77
2023/10/07 09:23:19;;;;;;;10.83;4.67;;;16.70;99.90;;;;;;5052511;28;20218;-77
2023/10/07 09:25:55;;;;;;;9.47;4.03;;;16.80;99.90;;;;;;5051388;28;20171;-77
2023/10/07 09:28:29;;;;;;;10.07;4.13;;;16.80;99.90;;;;;;5051041;28;20300;-76
2023/10/07 09:31:06;;;;;;;8.60;4.30;;;16.90;99.90;;;;;;5050681;28;20275;-77
2023/10/07 09:33:36;;;;;;;11.90;4.33;;;16.90;99.90;;;;;;5052151;28;20189;-75
2023/10/07 09:39:04;;;;;;;11.00;4.20;;;17.10;99.90;;;;;;5052648;28;20182;-76
2023/10/07 09:41:32;;;;;;;9.33;4.20;;;17.20;99.90;;;;;;5050731;28;20259;-77
2023/10/07 09:44:00;;;;;;;13.33;4.53;;;17.20;99.90;;;;;;5052258;28;20168;-76
2023/10/07 09:46:27;;;;;;;10.27;4.03;;;17.30;99.90;;;;;;5052286;28;20171;-77
2023/10/07 09:48:59;;;;;;;9.87;4.00;;;17.40;99.90;;;;;;5052039;28;20171;-77
2023/10/07 09:51:28;;;;;;;10.13;3.87;;;17.50;99.90;;;;;;5052586;28;20225;-77
2023/10/07 09:54:07;;;;;;;8.33;3.60;;;17.60;99.90;;;;;;5054608;28;20175;-77
2023/10/07 09:56:43;;;;;;;12.27;4.67;;;17.60;99.90;;;;;;5055136;28;20263;-77
2023/10/07 09:59:36;;;;;;;7.47;3.50;;;17.70;99.90;;;;;;5056062;28;20151;-77
2023/10/07 10:02:42;;;;;;;10.47;4.13;;;17.80;99.90;;;;;;5056187;28;20349;-76
2023/10/07 10:05:14;;;;;;;7.33;3.77;;;17.80;99.90;;;;;;5048055;28;20556;-74
2023/10/07 10:08:10;;;;;;;11.00;4.10;;;17.90;99.90;;;;;;5055598;28;20171;-77
2023/10/07 10:10:44;;;;;;;7.07;3.57;;;17.90;99.90;;;;;;5055702;28;20167;-76
2023/10/07 10:14:16;;;;;;;9.23;4.20;;;18.10;99.90;;;;;;5055204;28;20215;-77
2023/10/07 10:16:16;;;;;;;8.17;4.10;;;18.10;99.90;;;;;;5054699;28;20282;-77
2023/10/07 10:18:50;;;;;;;8.00;3.30;;;18.10;99.90;;;;;;5055349;28;20654;-77
2023/10/07 10:21:22;;;;;;;8.17;3.93;;;18.10;48.40;;;;;;5054095;28;20167;-77
2023/10/07 10:23:51;;;;;;;9.43;4.00;;;18.30;2.50;;;;;;5055281;28;20210;-76
2023/10/07 10:26:22;;;;;;;10.33;4.10;;;18.30;1.00;;;;;;5055237;28;20171;-77
2023/10/07 10:29:00;;;;;;;6.73;3.53;;;18.40;1.00;;;;;;5055308;28;20152;-77
2023/10/07 10:31:32;;;;;;;8.30;3.23;;;18.50;1.00;;;;;;5055061;28;20263;-75
2023/10/07 10:34:05;;;;;;;8.37;3.67;;;18.50;1.00;;;;;;5055060;28;20172;-77
2023/10/07 10:36:36;;;;;;;7.53;3.23;;;18.60;99.90;;;;;;5055205;28;20148;-77
2023/10/07 10:39:05;;;;;;;8.37;3.07;;;18.70;99.90;;;;;;5053815;28;20167;-77
2023/10/07 10:41:32;;;;;;;9.03;3.40;;;18.70;99.90;;;;;;5054983;28;20163;-77
2023/10/07 10:44:10;;;;;;;6.40;3.63;;;18.70;99.90;;;;;;5053675;28;20226;-77
2023/10/07 10:46:44;;;;;;;10.30;3.70;;;18.70;1.00;;;;;;5055260;28;20243;-77
2023/10/07 10:49:14;;;;;;;11.33;3.23;;;18.90;99.90;;;;;;5054870;28;20179;-77
2023/10/07 10:51:50;;;;;;;8.00;4.00;;;18.90;1.00;;;;;;5054911;28;20152;-77
2023/10/07 10:54:20;;;;;;;8.23;3.77;;;18.90;1.00;;;;;;5053410;28;20229;-77
2023/10/07 10:56:57;;;;;;;8.43;3.43;;;19.00;71.70;;;;;;5054977;28;20152;-77
2023/10/07 10:59:47;;;;;;;7.20;3.30;;;19.10;1.00;;;;;;5054686;28;20214;-77
2023/10/07 11:02:17;;;;;;;9.50;3.17;;;19.10;96.20;;;;;;5053260;28;20209;-77
2023/10/07 11:04:51;;;;;;;5.37;2.80;;;19.20;99.90;;;;;;5054634;28;20500;-77
2023/10/07 11:07:18;;;;;;;6.57;3.27;;;19.20;99.90;;;;;;5053211;28;20172;-77
2023/10/07 11:09:48;;;;;;;7.57;3.10;;;19.30;99.90;;;;;;5054481;28;20195;-77
2023/10/07 11:12:16;;;;;;;8.67;3.37;;;19.40;1.00;;;;;;5053206;28;20241;-76
2023/10/07 11:14:43;;;;;;;7.87;3.37;;;19.50;99.90;;;;;;5052976;28;20246;-77
2023/10/07 11:17:12;;;;;;;7.00;3.00;;;19.40;1.00;;;;;;5054401;28;20172;-77
2023/10/07 11:19:44;;;;;;;7.10;3.10;;;19.50;1.00;;;;;;5054541;28;20619;-77
2023/10/07 11:22:20;;;;;;;6.70;3.17;;;19.60;99.90;;;;;;5054681;28;20231;-77
2023/10/07 11:24:50;;;;;;;6.27;2.50;;;19.80;1.00;;;;;;5054270;28;20207;-77
2023/10/07 11:27:23;;;;;;;5.47;2.33;;;19.90;1.00;;;;;;5053416;28;20183;-77
2023/10/07 11:30:03;;;;;;;7.73;2.80;;;19.90;1.00;;;;;;5052835;28;20191;-77
2023/10/07 11:32:29;;;;;;;6.00;2.80;;;20.00;1.00;;;;;;5054006;28;20659;-77
2023/10/07 11:34:57;;;;;;;7.03;2.80;;;20.00;3.50;;;;;;5054021;28;20206;-77
2023/10/07 11:37:23;;;;;;;8.27;3.03;;;20.10;99.90;;;;;;5052892;28;20279;-77
2023/10/07 11:39:48;;;;;;;5.13;2.60;;;20.10;1.00;;;;;;5054448;28;20207;-77
2023/10/07 11:42:20;;;;;;;5.37;2.63;;;20.20;1.00;;;;;;5054536;28;20196;-77
2023/10/07 11:44:54;;;;;;;6.43;2.63;;;20.20;1.00;;;;;;5053886;28;20663;-77
2023/10/07 11:47:20;;;;;;;4.13;2.70;;;20.20;1.00;;;;;;5053951;28;20167;-77
2023/10/07 11:49:47;;;;;;;5.60;2.97;;;20.30;1.00;;;;;;5052517;28;20187;-78
2023/10/07 11:52:14;;;;;;;7.47;2.90;;;20.30;1.00;;;;;;5053655;28;20208;-77
2023/10/07 11:54:40;;;;;;;5.80;2.80;;;20.20;99.90;;;;;;5053619;28;20188;-77
2023/10/07 11:57:06;;;;;;;6.90;3.13;;;20.30;1.00;;;;;;5052576;28;20176;-77
2023/10/07 11:59:41;;;;;;;5.10;2.60;;;20.30;99.90;;;;;;5052412;28;20263;-77
2023/10/07 12:02:10;;;;;;;6.90;2.43;;;20.30;99.90;;;;;;5052257;28;20202;-77
2023/10/07 12:04:46;;;;;;;6.33;2.93;;;20.30;99.90;;;;;;5053694;28;20172;-77
2023/10/07 12:07:14;;;;;;;8.93;2.83;;;20.40;99.90;;;;;;5053828;28;20534;-77
2023/10/07 12:09:41;;;;;;;9.37;2.80;;;20.40;83.00;;;;;;5052165;28;20180;-77
2023/10/07 12:12:09;;;;;;;4.60;2.70;;;20.40;1.00;;;;;;5053612;28;20222;-77
2023/10/07 12:14:36;;;;;;;5.97;2.73;;;20.40;1.00;;;;;;5051562;28;20210;-76
2023/10/07 12:17:04;;;;;;;6.80;2.80;;;20.40;99.90;;;;;;5053782;28;20183;-77
2023/10/07 12:19:30;;;;;;;5.10;2.97;;;20.50;1.00;;;;;;5053421;28;20202;-77
2023/10/07 12:21:57;;;;;;;6.70;2.87;;;20.60;99.90;;;;;;5052179;28;20252;-77
2023/10/07 12:24:22;;;;;;;6.77;2.83;;;20.60;1.00;;;;;;5052778;28;20544;-77
2023/10/07 12:26:51;;;;;;;6.67;3.10;;;20.70;99.90;;;;;;5051777;28;20186;-77
2023/10/07 12:29:20;;;;;;;5.33;3.00;;;20.70;99.90;;;;;;5051988;28;20245;-76
2023/10/07 12:31:47;;;;;;;6.70;2.50;;;20.90;99.90;;;;;;5051690;28;20243;-77
2023/10/07 12:34:15;;;;;;;10.03;2.83;;;20.80;99.90;;;;;;5053334;28;20573;-77
2023/10/07 12:36:41;;;;;;;6.67;3.20;;;20.90;99.90;;;;;;5053063;28;20631;-77
2023/10/07 12:39:14;;;;;;;6.97;3.27;;;20.90;1.00;;;;;;5053202;28;20167;-77
2023/10/07 12:41:41;;;;;;;4.83;2.80;;;21.00;1.00;;;;;;5053436;28;20163;-77
2023/10/07 12:44:08;;;;;;;6.27;2.93;;;21.00;99.90;;;;;;5053537;28;20187;-77
2023/10/07 12:46:36;;;;;;;7.33;3.30;;;21.10;99.90;;;;;;5052990;28;20175;-77
2023/10/07 12:49:01;;;;;;;9.53;3.40;;;21.00;99.90;;;;;;5051509;28;20184;-77
2023/10/07 12:51:31;;;;;;;5.37;3.10;;;21.00;99.90;;;;;;5052846;28;20182;-78
2023/10/07 12:53:59;;;;;;;7.43;3.40;;;21.00;99.90;;;;;;5052631;28;20282;-77
2023/10/07 12:56:26;;;;;;;9.33;2.93;;;21.00;99.90;;;;;;5052717;28;20174;-77
2023/10/07 12:58:53;;;;;;;6.23;2.80;;;21.20;99.90;;;;;;5051367;28;20608;-77
2023/10/07 13:01:19;;;;;;;7.40;3.43;;;21.10;99.90;;;;;;5052604;28;20171;-76
2023/10/07 13:03:44;;;;;;;5.67;2.80;;;21.10;1.00;;;;;;5052562;28;20198;-77
2023/10/07 13:06:11;;;;;;;6.47;2.83;;;21.10;99.90;;;;;;5052586;28;20176;-76
2023/10/07 13:08:41;;;;;;;7.87;3.17;;;21.20;47.00;;;;;;5052754;28;20619;-77
2023/10/07 13:11:11;;;;;;;4.30;3.00;;;21.30;99.90;;;;;;5052652;28;20187;-77
2023/10/07 13:13:39;;;;;;;8.00;3.27;;;21.30;1.00;;;;;;5051098;28;20253;-78
2023/10/07 13:16:10;;;;;;;5.87;2.97;;;21.20;1.00;;;;;;5051091;28;20238;-77
2023/10/07 13:18:40;;;;;;;6.73;3.60;;;21.30;1.00;;;;;;5052675;28;20703;-77
2023/10/07 13:21:18;;;;;;;11.33;3.37;;;21.30;1.00;;;;;;5052534;28;20175;-77
2023/10/07 13:23:45;;;;;;;5.90;3.10;;;21.40;1.00;;;;;;5053312;28;20278;-77
2023/10/07 13:26:11;;;;;;;9.63;3.50;;;21.30;1.00;;;;;;5052655;28;20593;-76
2023/10/07 13:28:38;;;;;;;5.63;3.10;;;21.30;1.00;;;;;;5055151;28;20179;-77
2023/10/07 13:31:08;;;;;;;7.87;2.80;;;21.30;1.00;;;;;;5056273;28;20566;-77
2023/10/07 13:33:37;;;;;;;9.40;3.63;;;21.30;1.00;;;;;;5056331;28;20599;-77
2023/10/07 13:36:07;;;;;;;4.60;2.57;;;21.20;1.00;;;;;;5056313;28;20195;-77
2023/10/07 13:38:33;;;;;;;8.97;3.30;;;21.30;61.80;;;;;;5055000;28;20182;-77
2023/10/07 13:41:05;;;;;;;5.57;3.40;;;21.40;94.90;;;;;;5054862;28;20179;-77
2023/10/07 13:43:33;;;;;;;10.77;3.30;;;21.40;1.00;;;;;;5056635;28;20191;-77
2023/10/07 13:46:01;;;;;;;7.67;3.47;;;21.40;1.00;;;;;;5056787;28;20545;-78
2023/10/07 13:48:27;;;;;;;10.70;3.80;;;21.50;1.00;;;;;;5055518;28;20651;-77
2023/10/07 13:51:00;;;;;;;7.40;3.20;;;21.40;1.00;;;;;;5057247;28;20183;-77